createdAt,value
2018-09-14T00:02:06.233Z,26.23
2018-09-14T00:04:38.564Z,25.80
2018-09-14T00:07:10.912Z,26.17
2018-09-14T00:09:43.204Z,26.23
2018-09-14T00:12:15.579Z,26.03
2018-09-14T00:14:47.888Z,25.67
2018-09-14T00:17:20.197Z,26.27
2018-09-14T00:19:52.503Z,25.97
2018-09-14T00:22:24.847Z,25.50
2018-09-14T00:24:57.160Z,26.20
2018-09-14T00:27:29.516Z,24.50
2018-09-14T00:30:01.820Z,23.70
2018-09-14T00:32:34.136Z,25.30
2018-09-14T00:35:06.512Z,24.83
2018-09-14T00:37:38.831Z,26.47
2018-09-14T00:40:11.145Z,25.23
2018-09-14T00:42:43.467Z,24.70
2018-09-14T00:45:15.767Z,26.30
2018-09-14T00:47:48.079Z,25.93
2018-09-14T00:50:20.388Z,26.13
2018-09-14T00:52:52.707Z,24.23
2018-09-14T00:55:25.023Z,23.43
2018-09-14T00:57:57.340Z,23.73
2018-09-14T01:00:29.644Z,25.80
2018-09-14T01:03:01.970Z,23.33
2018-09-14T01:05:34.576Z,24.13
2018-09-14T01:08:06.904Z,24.70
2018-09-14T01:10:39.215Z,24.77
2018-09-14T01:13:11.537Z,24.40
2018-09-14T01:15:43.843Z,24.83
2018-09-14T01:18:16.230Z,26.03
2018-09-14T01:20:48.524Z,26.43
2018-09-14T01:23:20.853Z,24.80
2018-09-14T01:25:53.158Z,24.83
2018-09-14T01:28:25.488Z,25.13
2018-09-14T01:30:57.803Z,24.57
2018-09-14T01:33:30.120Z,23.53
2018-09-14T01:36:02.435Z,26.80
2018-09-14T01:38:34.763Z,24.90
2018-09-14T01:41:07.091Z,23.87
2018-09-14T01:43:39.416Z,25.63
2018-09-14T01:46:11.824Z,26.00
2018-09-14T01:48:44.163Z,25.43
2018-09-14T01:51:16.479Z,27.03
2018-09-14T01:53:48.800Z,28.57
2018-09-14T01:56:21.118Z,27.93
2018-09-14T01:58:53.447Z,30.73
2018-09-14T02:01:25.755Z,29.87
2018-09-14T02:03:58.079Z,27.30
2018-09-14T02:06:30.383Z,27.23
2018-09-14T02:09:02.732Z,25.60
2018-09-14T02:11:35.028Z,25.13
2018-09-14T02:14:07.352Z,27.70
2018-09-14T02:16:39.652Z,27.43
2018-09-14T02:19:11.972Z,26.67
2018-09-14T02:21:44.291Z,27.23
2018-09-14T02:24:16.620Z,30.60
2018-09-14T02:26:48.919Z,29.03
2018-09-14T02:29:21.238Z,28.17
2018-09-14T02:31:53.559Z,25.97
2018-09-14T02:34:25.878Z,28.40
2018-09-14T02:36:58.175Z,28.57
2018-09-14T02:39:30.496Z,28.23
2018-09-14T02:42:02.804Z,28.33
2018-09-14T02:44:35.120Z,28.67
2018-09-14T02:47:07.427Z,28.03
2018-09-14T02:49:39.741Z,26.50
2018-09-14T02:52:12.043Z,25.20
2018-09-14T02:54:44.351Z,26.93
2018-09-14T02:57:17.603Z,25.40
2018-09-14T02:59:49.923Z,26.23
2018-09-14T03:02:22.232Z,26.87
2018-09-14T03:04:54.565Z,26.97
2018-09-14T03:07:26.861Z,27.80
2018-09-14T03:09:59.190Z,28.83
2018-09-14T03:12:31.528Z,29.87
2018-09-14T03:15:03.949Z,30.03
2018-09-14T03:17:36.251Z,28.67
2018-09-14T03:20:08.559Z,28.77
2018-09-14T03:22:40.879Z,28.30
2018-09-14T03:25:13.201Z,29.50
2018-09-14T03:27:45.507Z,30.33
2018-09-14T03:30:17.824Z,30.33
2018-09-14T03:32:50.132Z,29.53
2018-09-14T03:35:22.451Z,29.23
2018-09-14T03:37:54.796Z,31.50
2018-09-14T03:40:27.127Z,29.97
2018-09-14T03:42:59.433Z,29.43
2018-09-14T03:45:31.768Z,28.43
2018-09-14T03:48:04.072Z,28.83
2018-09-14T03:50:36.401Z,30.37
2018-09-14T03:53:08.704Z,28.90
2018-09-14T03:55:41.026Z,29.87
2018-09-14T03:58:13.332Z,27.70
2018-09-14T04:00:45.715Z,28.27
2018-09-14T04:03:18.016Z,28.93
2018-09-14T04:05:50.343Z,27.57
2018-09-14T04:08:22.654Z,27.80
2018-09-14T04:10:54.995Z,28.93
2018-09-14T04:13:27.320Z,27.97
2018-09-14T04:15:59.636Z,27.93
2018-09-14T04:18:31.956Z,28.47
2018-09-14T04:21:04.279Z,28.97
2018-09-14T04:23:36.662Z,27.93
2018-09-14T04:26:08.963Z,29.10
2018-09-14T04:28:41.307Z,25.80
2018-09-14T04:31:13.661Z,28.00
2018-09-14T04:33:45.951Z,28.67
2018-09-14T04:36:18.266Z,26.93
2018-09-14T04:38:51.408Z,27.30
2018-09-14T04:41:23.761Z,28.33
2018-09-14T04:43:56.058Z,28.80
2018-09-14T04:46:28.369Z,30.10
2018-09-14T04:49:00.708Z,31.23
2018-09-14T04:51:33.087Z,30.33
2018-09-14T04:54:05.335Z,30.83
2018-09-14T04:56:37.670Z,31.37
2018-09-14T04:59:10.024Z,30.20
2018-09-14T05:01:42.428Z,29.47
2018-09-14T05:04:14.800Z,31.53
2018-09-14T05:06:47.095Z,33.60
2018-09-14T05:09:19.415Z,31.53
2018-09-14T05:11:51.733Z,32.23
2018-09-14T05:14:24.048Z,28.90
2018-09-14T05:16:56.372Z,31.93
2018-09-14T05:19:28.721Z,29.30
2018-09-14T05:22:01.011Z,31.60
2018-09-14T05:24:33.446Z,29.87
2018-09-14T05:27:05.746Z,30.13
2018-09-14T05:29:38.063Z,30.77
2018-09-14T05:32:10.388Z,30.50
2018-09-14T05:34:42.727Z,28.00
2018-09-14T05:37:15.031Z,28.60
2018-09-14T05:39:47.360Z,30.93
2018-09-14T05:42:19.760Z,28.73
2018-09-14T05:44:52.068Z,27.27
2018-09-14T05:47:24.382Z,28.47
2018-09-14T05:49:56.713Z,26.60
2018-09-14T05:52:29.036Z,24.90
2018-09-14T05:55:01.364Z,24.67
2018-09-14T05:57:33.691Z,26.07
2018-09-14T06:00:06.033Z,26.30
2018-09-14T06:02:38.422Z,24.43
2018-09-14T06:05:10.745Z,25.13
2018-09-14T06:07:43.056Z,24.47
2018-09-14T06:10:15.368Z,23.53
2018-09-14T06:12:47.726Z,23.97
2018-09-14T06:15:20.040Z,22.67
2018-09-14T06:17:52.347Z,21.30
2018-09-14T06:20:24.683Z,21.33
2018-09-14T06:22:57.015Z,19.23
2018-09-14T06:25:29.326Z,19.07
2018-09-14T06:28:01.639Z,17.80
2018-09-14T06:30:33.974Z,17.63
2018-09-14T06:33:06.288Z,16.33
2018-09-14T06:35:38.696Z,15.10
2018-09-14T06:38:11.040Z,16.87
2018-09-14T06:40:43.351Z,17.13
2018-09-14T06:43:15.660Z,15.40
2018-09-14T06:45:48.024Z,14.03
2018-09-14T06:48:20.395Z,16.97
2018-09-14T06:50:52.715Z,17.00
2018-09-14T06:53:25.145Z,17.43
2018-09-14T06:55:57.360Z,16.37
2018-09-14T06:58:29.679Z,14.43
2018-09-14T07:01:02.012Z,17.10
2018-09-14T07:03:34.340Z,14.40
2018-09-14T07:06:06.663Z,15.80
2018-09-14T07:08:38.988Z,18.80
2018-09-14T07:11:11.303Z,17.50
2018-09-14T07:13:43.668Z,17.13
2018-09-14T07:16:15.972Z,16.60
2018-09-14T07:18:48.275Z,17.27
2018-09-14T07:21:20.604Z,18.13
2018-09-14T07:23:52.982Z,17.00
2018-09-14T07:26:25.300Z,21.03
2018-09-14T07:28:57.683Z,18.83
2018-09-14T07:31:29.987Z,18.07
2018-09-14T07:34:02.365Z,18.70
2018-09-14T07:36:34.698Z,20.47
2018-09-14T07:39:07.831Z,19.73
2018-09-14T07:41:40.164Z,19.93
2018-09-14T07:44:12.487Z,18.87
2018-09-14T07:46:44.809Z,18.33
2018-09-14T07:52:06.244Z,17.73
2018-09-14T07:54:38.564Z,20.27
2018-09-14T07:57:10.914Z,19.20
2018-09-14T07:59:43.283Z,19.60
2018-09-14T08:02:15.618Z,21.13
2018-09-14T08:04:47.949Z,18.73
2018-09-14T08:07:20.648Z,19.10
2018-09-14T08:09:52.975Z,18.37
2018-09-14T08:12:25.296Z,18.47
2018-09-14T08:14:57.634Z,18.73
2018-09-14T08:17:30.061Z,18.50
2018-09-14T08:20:02.425Z,18.77
2018-09-14T08:22:34.733Z,16.90
2018-09-14T08:25:07.053Z,18.27
2018-09-14T08:27:39.380Z,17.63
2018-09-14T08:30:11.700Z,17.93
2018-09-14T08:32:44.028Z,18.63
2018-09-14T08:35:16.343Z,19.53
2018-09-14T08:37:48.696Z,18.93
2018-09-14T08:40:20.995Z,18.60
2018-09-14T08:42:53.319Z,17.40
2018-09-14T08:45:25.643Z,16.50
2018-09-14T08:47:58.022Z,19.13
2018-09-14T08:50:30.303Z,18.33
2018-09-14T08:53:02.628Z,19.13
2018-09-14T08:55:35.050Z,19.13
2018-09-14T08:58:07.374Z,20.13
2018-09-14T09:00:39.724Z,20.80
2018-09-14T09:03:12.160Z,18.33
2018-09-14T09:05:44.643Z,18.93
2018-09-14T09:08:16.953Z,21.23
2018-09-14T09:10:49.264Z,21.87
2018-09-14T09:13:21.589Z,20.93
2018-09-14T09:15:53.904Z,23.83
2018-09-14T09:18:26.245Z,22.20
2018-09-14T09:20:58.567Z,20.53
2018-09-14T09:23:31.468Z,25.50
2018-09-14T09:26:03.711Z,26.90
2018-09-14T09:28:36.028Z,26.27
2018-09-14T09:31:08.349Z,24.20
2018-09-14T09:33:40.671Z,21.90
2018-09-14T09:36:13.295Z,25.73
2018-09-14T09:38:45.629Z,25.47
2018-09-14T09:41:17.944Z,24.37
2018-09-14T09:43:50.325Z,26.30
2018-09-14T09:46:22.592Z,25.83
2018-09-14T09:48:54.914Z,25.97
2018-09-14T09:51:27.345Z,27.57
2018-09-14T09:53:59.664Z,27.00
2018-09-14T09:56:31.983Z,24.80
2018-09-14T09:59:04.299Z,26.27
2018-09-14T10:01:36.624Z,25.40
2018-09-14T10:04:09.091Z,23.60
2018-09-14T10:06:41.367Z,24.50
2018-09-14T10:09:13.688Z,27.03
2018-09-14T10:11:46.028Z,28.70
2018-09-14T10:14:18.352Z,27.63
2018-09-14T10:16:50.673Z,26.83
2018-09-14T10:19:23.009Z,24.47
2018-09-14T10:21:55.299Z,25.80
2018-09-14T10:24:27.644Z,23.07
2018-09-14T10:27:00.343Z,20.30
2018-09-14T10:29:33.332Z,19.77
2018-09-14T10:32:05.812Z,20.70
2018-09-14T10:34:38.114Z,18.00
2018-09-14T10:37:10.509Z,15.87
2018-09-14T10:39:42.854Z,10.33
2018-09-14T10:42:15.168Z,10.87
2018-09-14T10:44:48.294Z,12.10
2018-09-14T10:47:20.928Z,11.00
2018-09-14T10:49:53.993Z,11.80
2018-09-14T10:52:27.147Z,10.27
2018-09-14T10:54:59.800Z,9.33
2018-09-14T10:57:32.131Z,10.60
2018-09-14T11:00:04.548Z,13.40
2018-09-14T11:02:36.859Z,13.13
2018-09-14T11:05:09.191Z,11.37
2018-09-14T11:07:41.513Z,12.27
2018-09-14T11:10:14.048Z,12.23
2018-09-14T11:12:46.480Z,12.50
2018-09-14T11:15:18.895Z,12.80
2018-09-14T11:17:51.211Z,10.20
2018-09-14T11:20:23.518Z,10.80
2018-09-14T11:22:55.959Z,10.03
2018-09-14T11:25:28.291Z,10.40
2018-09-14T11:28:00.692Z,10.13
2018-09-14T11:30:32.907Z,9.80
2018-09-14T11:33:05.278Z,10.53
2018-09-14T11:35:37.607Z,9.60
2018-09-14T11:38:09.934Z,9.07
2018-09-14T11:40:42.239Z,10.73
2018-09-14T11:43:14.887Z,7.93
2018-09-14T11:45:47.196Z,8.57
2018-09-14T11:48:19.543Z,8.33
2018-09-14T11:50:51.874Z,7.67
2018-09-14T11:53:24.229Z,7.03
2018-09-14T11:55:56.559Z,6.97
2018-09-14T11:58:28.888Z,6.83
2018-09-14T12:01:01.221Z,7.03
2018-09-14T12:03:33.532Z,7.23
2018-09-14T12:06:05.844Z,6.50
2018-09-14T12:08:38.155Z,7.43
2018-09-14T12:11:10.468Z,6.53
2018-09-14T12:13:42.843Z,7.13
2018-09-14T12:16:15.108Z,5.60
2018-09-14T12:18:47.440Z,5.40
2018-09-14T12:21:19.847Z,6.20
2018-09-14T12:23:52.177Z,6.63
2018-09-14T12:26:24.479Z,5.93
2018-09-14T12:28:56.804Z,5.10
2018-09-14T12:31:29.190Z,5.10
2018-09-14T12:34:01.760Z,6.00
2018-09-14T12:36:34.076Z,5.07
2018-09-14T12:39:07.647Z,4.40
2018-09-14T12:41:40.006Z,5.67
2018-09-14T12:44:12.291Z,4.87
2018-09-14T12:46:44.647Z,5.87
2018-09-14T12:49:16.947Z,6.80
2018-09-14T12:51:49.288Z,6.67
2018-09-14T12:54:21.633Z,5.23
2018-09-14T12:56:53.931Z,7.47
2018-09-14T12:59:26.300Z,7.73
2018-09-14T13:01:58.911Z,5.53
2018-09-14T13:04:31.231Z,6.20
2018-09-14T13:07:03.572Z,6.33
2018-09-14T13:09:36.196Z,6.23
2018-09-14T13:12:08.509Z,4.73
2018-09-14T13:14:40.898Z,4.43
2018-09-14T13:17:13.156Z,4.77
2018-09-14T13:19:45.469Z,5.30
2018-09-14T13:22:17.775Z,5.33
2018-09-14T13:24:50.091Z,4.30
2018-09-14T13:27:22.406Z,4.87
2018-09-14T13:29:54.765Z,4.80
2018-09-14T13:32:27.368Z,4.30
2018-09-14T13:34:59.687Z,4.83
2018-09-14T13:37:32.009Z,6.07
2018-09-14T13:40:04.352Z,5.17
2018-09-14T13:42:36.660Z,6.50
2018-09-14T13:45:09.555Z,5.27
2018-09-14T13:47:41.978Z,5.20
2018-09-14T13:50:14.280Z,5.73
2018-09-14T13:52:46.654Z,6.17
2018-09-14T13:55:18.916Z,5.40
2018-09-14T13:57:51.240Z,5.10
2018-09-14T14:00:23.620Z,5.93
2018-09-14T14:02:55.932Z,5.43
2018-09-14T14:05:28.266Z,5.83
2018-09-14T14:08:00.571Z,6.33
2018-09-14T14:10:32.892Z,5.50
2018-09-14T14:13:05.279Z,5.10
2018-09-14T14:15:37.592Z,5.53
2018-09-14T14:18:09.887Z,6.83
2018-09-14T14:20:42.204Z,5.70
2018-09-14T14:23:14.568Z,4.53
2018-09-14T14:25:46.843Z,5.13
2018-09-14T14:28:19.160Z,4.40
2018-09-14T14:30:51.777Z,4.07
2018-09-14T14:33:24.079Z,3.90
2018-09-14T14:35:56.405Z,4.53
2018-09-14T14:38:28.734Z,4.20
2018-09-14T14:41:01.056Z,3.60
2018-09-14T14:43:33.432Z,4.53
2018-09-14T14:46:05.740Z,3.60
2018-09-14T14:48:39.076Z,4.23
2018-09-14T14:51:11.388Z,4.30
2018-09-14T14:53:43.692Z,4.17
2018-09-14T14:56:16.020Z,5.37
2018-09-14T14:58:48.323Z,4.37
2018-09-14T15:01:20.993Z,3.83
2018-09-14T15:03:53.326Z,5.40
2018-09-14T15:06:25.603Z,4.70
2018-09-14T15:08:57.903Z,5.67
2018-09-14T15:11:30.228Z,5.20
2018-09-14T15:14:02.504Z,4.13
2018-09-14T15:16:34.783Z,3.97
2018-09-14T15:19:07.095Z,3.37
2018-09-14T15:21:39.612Z,3.40
2018-09-14T15:24:11.912Z,3.43
2018-09-14T15:26:44.229Z,3.40
2018-09-14T15:29:16.529Z,3.30
2018-09-14T15:31:48.819Z,2.90
2018-09-14T15:34:21.123Z,3.50
2018-09-14T15:36:53.438Z,4.03
2018-09-14T15:39:25.751Z,3.50
2018-09-14T15:41:58.083Z,3.97
2018-09-14T15:44:30.364Z,3.17
2018-09-14T15:47:02.699Z,3.30
2018-09-14T15:49:34.993Z,3.40
2018-09-14T15:52:07.308Z,3.23
2018-09-14T15:54:39.596Z,3.40
2018-09-14T15:57:11.913Z,3.80
2018-09-14T15:59:44.251Z,3.70
2018-09-14T16:02:16.566Z,3.00
2018-09-14T16:04:48.924Z,3.30
2018-09-14T16:07:23.812Z,3.43
2018-09-14T16:09:57.114Z,3.27
2018-09-14T16:12:29.508Z,3.23
2018-09-14T16:15:01.828Z,3.50
2018-09-14T16:17:34.131Z,5.10
2018-09-14T16:20:06.537Z,4.03
2018-09-14T16:22:38.848Z,3.13
2018-09-14T16:25:11.156Z,3.13
2018-09-14T16:27:43.459Z,3.53
2018-09-14T16:30:15.782Z,3.00
2018-09-14T16:32:48.098Z,3.60
2018-09-14T16:35:20.395Z,3.40
2018-09-14T16:37:52.712Z,3.70
2018-09-14T16:40:25.087Z,3.80
2018-09-14T16:42:57.372Z,3.77
2018-09-14T16:45:29.721Z,4.23
2018-09-14T16:48:02.050Z,3.60
2018-09-14T16:50:34.328Z,3.90
2018-09-14T16:53:06.635Z,3.67
2018-09-14T16:55:38.940Z,3.90
2018-09-14T16:58:11.248Z,2.83
2018-09-14T17:00:43.843Z,3.23
2018-09-14T17:03:16.148Z,3.40
2018-09-14T17:05:48.455Z,2.87
2018-09-14T17:08:20.759Z,3.00
2018-09-14T17:10:53.059Z,4.30
2018-09-14T17:13:25.368Z,3.43
2018-09-14T17:15:57.661Z,3.13
2018-09-14T17:18:29.975Z,2.57
2018-09-14T17:21:02.283Z,3.00
2018-09-14T17:23:34.588Z,3.13
2018-09-14T17:26:06.881Z,2.93
2018-09-14T17:28:39.236Z,2.30
2018-09-14T17:31:11.593Z,2.47
2018-09-14T17:33:43.888Z,2.30
2018-09-14T17:36:16.448Z,2.60
2018-09-14T17:38:48.736Z,2.47
2018-09-14T17:41:21.280Z,2.77
2018-09-14T17:43:53.659Z,2.50
2018-09-14T17:46:25.943Z,2.63
2018-09-14T17:48:58.250Z,2.70
2018-09-14T17:51:30.565Z,2.97
2018-09-14T17:54:02.855Z,2.93
2018-09-14T17:56:35.172Z,2.80
2018-09-14T17:59:07.465Z,3.37
2018-09-14T18:01:39.849Z,2.60
2018-09-14T18:04:12.157Z,2.93
2018-09-14T18:06:44.456Z,2.40
2018-09-14T18:09:16.850Z,2.60
2018-09-14T18:11:49.144Z,2.73
2018-09-14T18:14:21.427Z,3.13
2018-09-14T18:16:53.755Z,2.87
2018-09-14T18:19:26.051Z,3.47
2018-09-14T18:21:58.368Z,4.23
2018-09-14T18:24:30.660Z,5.33
2018-09-14T18:27:02.970Z,4.30
2018-09-14T18:29:35.351Z,3.60
2018-09-14T18:32:07.666Z,3.33
2018-09-14T18:34:39.959Z,3.07
2018-09-14T18:37:12.260Z,3.43
2018-09-14T18:39:44.800Z,3.30
2018-09-14T18:42:17.103Z,2.73
2018-09-14T18:44:49.407Z,3.30
2018-09-14T18:47:21.817Z,2.70
2018-09-14T18:49:54.108Z,3.03
2018-09-14T18:52:27.119Z,2.77
2018-09-14T18:54:59.411Z,3.10
2018-09-14T18:57:31.726Z,3.27
2018-09-14T19:00:04.151Z,2.90
2018-09-14T19:02:36.479Z,2.90
2018-09-14T19:05:08.800Z,2.93
2018-09-14T19:07:41.116Z,2.83
2018-09-14T19:10:13.416Z,3.00
2018-09-14T19:12:45.809Z,2.60
2018-09-14T19:15:18.215Z,2.93
2018-09-14T19:17:50.514Z,2.93
2018-09-14T19:20:22.818Z,2.93
2018-09-14T19:22:55.148Z,3.47
2018-09-14T19:25:27.451Z,3.90
2018-09-14T19:28:00.089Z,3.70
2018-09-14T19:30:32.412Z,3.93
2018-09-14T19:33:04.780Z,3.90
2018-09-14T19:35:37.100Z,3.70
2018-09-14T19:38:09.439Z,3.67
2018-09-14T19:40:41.756Z,3.77
2018-09-14T19:43:14.095Z,3.47
2018-09-14T19:45:46.707Z,3.70
2018-09-14T19:48:19.061Z,4.30
2018-09-14T19:50:51.360Z,8.03
2018-09-14T19:53:23.672Z,4.67
2018-09-14T19:55:55.995Z,6.60
2018-09-14T19:58:28.321Z,6.13
2018-09-14T20:01:00.628Z,5.40
2018-09-14T20:03:32.947Z,4.27
2018-09-14T20:06:05.302Z,3.67
2018-09-14T20:08:38.787Z,3.90
2018-09-14T20:11:11.085Z,4.03
2018-09-14T20:13:43.396Z,4.20
2018-09-14T20:16:15.717Z,4.47
2018-09-14T20:18:48.332Z,3.63
2018-09-14T20:21:20.639Z,3.60
2018-09-14T20:23:53.264Z,4.07
2018-09-14T20:26:25.568Z,3.80
2018-09-14T20:28:58.215Z,3.83
2018-09-14T20:31:30.533Z,3.80
2018-09-14T20:34:02.861Z,3.80
2018-09-14T20:36:35.167Z,3.97
2018-09-14T20:39:08.420Z,4.40
2018-09-14T20:41:40.789Z,3.90
2018-09-14T20:44:13.098Z,4.30
2018-09-14T20:46:45.414Z,3.97
2018-09-14T20:49:17.803Z,4.10
2018-09-14T20:51:50.104Z,3.90
2018-09-14T20:54:22.412Z,3.60
2018-09-14T20:56:54.726Z,3.70
2018-09-14T20:59:27.332Z,4.07
2018-09-14T21:01:59.731Z,4.40
2018-09-14T21:04:32.641Z,4.50
2018-09-14T21:07:05.061Z,4.27
2018-09-14T21:09:37.657Z,3.97
2018-09-14T21:12:10.264Z,4.33
2018-09-14T21:14:42.902Z,4.13
2018-09-14T21:17:15.456Z,3.60
2018-09-14T21:19:47.772Z,3.87
2018-09-14T21:22:20.081Z,3.93
2018-09-14T21:24:52.395Z,3.53
2018-09-14T21:27:24.707Z,3.47
2018-09-14T21:29:57.024Z,3.90
2018-09-14T21:32:29.347Z,4.43
2018-09-14T21:35:01.659Z,4.03
2018-09-14T21:37:33.991Z,4.20
2018-09-14T21:40:06.321Z,3.93
2018-09-14T21:42:38.933Z,3.80
2018-09-14T21:45:11.250Z,4.10
2018-09-14T21:47:43.559Z,4.03
2018-09-14T21:50:16.259Z,4.10
2018-09-14T21:52:48.567Z,4.50
2018-09-14T21:55:20.883Z,4.40
2018-09-14T21:57:53.476Z,4.77
2018-09-14T22:00:25.823Z,4.63
2018-09-14T22:02:58.130Z,5.03
2018-09-14T22:05:30.461Z,4.93
2018-09-14T22:08:02.771Z,5.03
2018-09-14T22:10:35.095Z,4.70
2018-09-14T22:13:07.407Z,4.40
2018-09-14T22:15:39.744Z,4.03
2018-09-14T22:18:12.055Z,5.03
2018-09-14T22:20:44.381Z,4.80
2018-09-14T22:23:16.675Z,4.60
2018-09-14T22:25:49.249Z,4.50
2018-09-14T22:28:21.868Z,3.83
2018-09-14T22:30:54.180Z,3.97
2018-09-14T22:33:26.505Z,4.37
2018-09-14T22:35:58.841Z,3.67
2018-09-14T22:38:31.144Z,3.83
2018-09-14T22:41:03.484Z,3.77
2018-09-14T22:43:35.796Z,3.77
2018-09-14T22:46:08.228Z,4.10
2018-09-14T22:48:40.798Z,3.73
2018-09-14T22:51:13.163Z,3.97
2018-09-14T22:53:45.463Z,4.00
2018-09-14T22:56:17.783Z,3.97
2018-09-14T22:58:50.383Z,4.03
2018-09-14T23:01:22.707Z,4.00
2018-09-14T23:03:55.332Z,4.20
2018-09-14T23:06:27.631Z,4.20
2018-09-14T23:08:59.932Z,3.53
2018-09-14T23:11:32.243Z,3.50
2018-09-14T23:14:04.848Z,3.87
2018-09-14T23:16:37.147Z,4.00
2018-09-14T23:19:09.799Z,4.17
2018-09-14T23:21:42.114Z,3.40
2018-09-14T23:24:14.403Z,3.77
2018-09-14T23:26:46.707Z,3.70
2018-09-14T23:29:19.019Z,3.60
2018-09-14T23:31:51.320Z,3.73
2018-09-14T23:34:23.619Z,3.37
2018-09-14T23:36:56.163Z,3.10
2018-09-14T23:39:28.456Z,3.67
2018-09-14T23:42:00.755Z,3.00
2018-09-14T23:44:33.047Z,3.13
2018-09-14T23:47:05.348Z,3.07
2018-09-14T23:49:37.644Z,3.40
2018-09-14T23:52:09.986Z,3.60
2018-09-14T23:54:42.563Z,3.53
2018-09-14T23:57:14.880Z,3.17
2018-09-14T23:59:47.212Z,3.77
